metars...anyone know?

SEAN

New Member
KIAD 071951Z COR 21007G14KT 10SM FEW037 21/13 A3015 RMK AO2 SLP210 T02060128
what does the COR mean in this metar from dulles?
 
Top